Time;durP1;ratioP1;P1;durP2;ratioP2;P2;SDS_P1;SDS_P2;PMS_P1;PMS_P2;Temp;Humidity;BMP_temperature;BMP_pressure;BME280_temperature;BME280_humidity;BME280_pressure;Samples;Min_cycle;Max_cycle;Signal;HPM_P1;HPM_P2
2021/01/18 00:00:25;;;;;;;10.30;1.23;;;2.60;99.90;;;;;;5016265;28;20018;-77
2021/01/18 00:02:51;;;;;;;9.23;0.77;;;2.60;99.90;;;;;;5016298;28;20476;-77
2021/01/18 00:05:17;;;;;;;12.38;1.38;;;2.60;99.90;;;;;;5017064;28;20025;-77
2021/01/18 00:07:42;;;;;;;13.18;1.38;;;2.60;99.90;;;;;;4998860;28;20048;-77
2021/01/18 00:10:14;;;;;;;13.18;1.50;;;2.70;99.90;;;;;;4998875;28;20034;-77
2021/01/18 00:12:43;;;;;;;14.02;1.95;;;2.80;99.90;;;;;;5016456;28;20480;-77
2021/01/18 00:15:09;;;;;;;12.93;2.15;;;2.80;99.90;;;;;;5016736;28;20029;-77
2021/01/18 00:17:34;;;;;;;9.77;1.35;;;2.90;99.90;;;;;;4980049;28;20035;-77
2021/01/18 00:20:00;;;;;;;12.13;1.45;;;2.90;99.90;;;;;;4996738;28;20036;-77
2021/01/18 00:22:26;;;;;;;2.53;0.43;;;2.90;99.90;;;;;;5013939;28;20077;-77
2021/01/18 00:24:51;;;;;;;9.68;1.27;;;2.90;99.90;;;;;;5016063;28;20030;-77
2021/01/18 00:27:17;;;;;;;7.78;0.98;;;2.90;99.90;;;;;;5016608;28;20029;-78
2021/01/18 00:29:43;;;;;;;8.77;0.52;;;2.90;99.90;;;;;;5016210;28;20026;-78
2021/01/18 00:32:08;;;;;;;11.93;0.90;;;2.80;99.90;;;;;;4998552;28;20408;-78
2021/01/18 00:34:34;;;;;;;12.32;1.10;;;2.80;99.90;;;;;;4998307;28;20120;-78
2021/01/18 00:36:59;;;;;;;9.25;1.10;;;2.70;99.90;;;;;;5015390;28;20026;-77
2021/01/18 00:39:25;;;;;;;14.20;1.10;;;2.70;99.90;;;;;;4998498;28;20018;-77
2021/01/18 00:41:50;;;;;;;5.97;0.30;;;2.80;99.90;;;;;;5015471;28;20026;-77
2021/01/18 00:44:16;;;;;;;11.38;1.55;;;2.80;99.90;;;;;;5016497;28;20022;-77
2021/01/18 00:46:45;;;;;;;17.85;2.00;;;2.70;99.90;;;;;;4998387;28;20018;-77
2021/01/18 00:49:11;;;;;;;12.40;0.65;;;2.80;99.90;;;;;;4998274;28;20100;-77
2021/01/18 00:51:37;;;;;;;12.35;1.23;;;2.70;99.90;;;;;;5015790;28;20469;-77
2021/01/18 00:54:04;;;;;;;17.13;2.33;;;2.70;99.90;;;;;;4998167;28;20109;-77
2021/01/18 00:56:29;;;;;;;5.18;0.40;;;2.80;99.90;;;;;;5014663;28;20032;-77
2021/01/18 00:58:55;;;;;;;13.40;1.33;;;2.90;99.90;;;;;;4996173;28;20030;-77
2021/01/18 01:01:21;;;;;;;8.35;1.48;;;2.90;99.90;;;;;;5004397;28;20076;-77
2021/01/18 01:03:46;;;;;;;11.70;1.38;;;2.90;99.90;;;;;;4997941;28;20030;-76
2021/01/18 01:06:12;;;;;;;6.35;1.35;;;2.90;99.90;;;;;;4997663;28;20014;-76
2021/01/18 01:08:39;;;;;;;9.18;1.13;;;2.90;99.90;;;;;;4997557;28;20040;-76
2021/01/18 01:11:04;;;;;;;10.80;1.05;;;2.80;99.90;;;;;;5009389;28;20030;-76
2021/01/18 01:13:30;;;;;;;10.30;1.23;;;2.80;99.90;;;;;;4997215;28;20022;-76
2021/01/18 01:15:57;;;;;;;10.20;1.58;;;2.80;99.90;;;;;;4978088;28;20029;-76
2021/01/18 01:18:22;;;;;;;8.73;0.80;;;2.70;99.90;;;;;;4995348;28;20034;-76
2021/01/18 01:20:48;;;;;;;11.43;2.00;;;2.70;99.90;;;;;;4981743;28;20032;-76
2021/01/18 01:23:14;;;;;;;5.85;1.13;;;2.70;99.90;;;;;;5014979;28;20026;-76
2021/01/18 01:25:39;;;;;;;8.93;1.00;;;2.60;99.90;;;;;;5014818;28;20092;-76
2021/01/18 01:28:05;;;;;;;6.10;0.60;;;2.60;99.90;;;;;;5014964;28;20025;-76
2021/01/18 01:30:31;;;;;;;10.43;1.48;;;2.50;99.90;;;;;;4996656;28;20064;-76
2021/01/18 01:32:56;;;;;;;5.38;0.93;;;2.50;99.90;;;;;;5014906;28;20133;-76
2021/01/18 01:35:25;;;;;;;11.55;1.95;;;2.50;99.90;;;;;;4997231;28;20034;-76
2021/01/18 01:37:51;;;;;;;2.65;0.93;;;2.50;99.90;;;;;;5014984;28;20034;-76
2021/01/18 01:40:18;;;;;;;8.63;0.55;;;2.50;99.90;;;;;;5014878;28;20108;-76
2021/01/18 01:42:44;;;;;;;11.85;1.83;;;2.40;99.90;;;;;;4997246;28;20014;-76
2021/01/18 01:45:12;;;;;;;7.00;1.63;;;2.40;99.90;;;;;;5003511;28;20165;-76
2021/01/18 01:47:44;;;;;;;10.50;1.70;;;2.40;99.90;;;;;;4995656;28;20037;-76
2021/01/18 01:50:15;;;;;;;13.05;1.42;;;2.40;99.90;;;;;;4998548;28;20025;-76
2021/01/18 01:52:48;;;;;;;9.60;2.17;;;2.40;99.90;;;;;;5015474;28;20029;-76
2021/01/18 01:55:28;;;;;;;9.10;0.60;;;2.40;99.90;;;;;;5014200;28;20057;-76
2021/01/18 01:57:54;;;;;;;13.35;2.30;;;2.40;99.90;;;;;;4997530;28;20022;-76
2021/01/18 02:00:22;;;;;;;12.18;1.60;;;2.30;99.90;;;;;;4992197;28;20033;-76
2021/01/18 02:02:49;;;;;;;12.27;1.60;;;2.30;99.90;;;;;;4995700;28;20022;-76
2021/01/18 02:05:15;;;;;;;7.32;1.10;;;2.20;99.90;;;;;;4995807;28;20389;-76
2021/01/18 02:07:41;;;;;;;12.88;1.15;;;2.20;99.90;;;;;;4996215;28;20030;-76
2021/01/18 02:10:08;;;;;;;13.70;1.38;;;2.20;99.90;;;;;;4994459;28;20100;-75
2021/01/18 02:12:37;;;;;;;7.55;1.38;;;2.20;99.90;;;;;;4997853;28;20026;-75
2021/01/18 02:15:12;;;;;;;11.75;1.50;;;2.20;99.90;;;;;;5015950;28;20018;-75
2021/01/18 02:17:43;;;;;;;12.27;2.22;;;2.20;99.90;;;;;;5015916;28;20066;-75
2021/01/18 02:20:41;;;;;;;3.60;0.90;;;2.20;99.90;;;;;;5015777;28;20084;-75
2021/01/18 02:23:30;;;;;;;12.05;1.75;;;2.40;99.90;;;;;;5015222;28;20026;-75
2021/01/18 02:26:02;;;;;;;5.93;1.40;;;2.40;99.90;;;;;;5014512;28;20026;-75
2021/01/18 02:28:57;;;;;;;14.32;2.60;;;2.40;99.90;;;;;;4997690;28;20034;-75
2021/01/18 02:31:51;;;;;;;13.55;2.25;;;2.40;99.90;;;;;;5015293;28;20428;-76
2021/01/18 02:34:38;;;;;;;10.45;1.70;;;2.50;99.90;;;;;;5005108;28;20566;-75
2021/01/18 02:37:47;;;;;;;12.35;2.10;;;2.50;99.90;;;;;;5014807;28;20030;-75
2021/01/18 02:40:18;;;;;;;12.70;2.17;;;2.50;99.90;;;;;;4979776;28;20037;-75
2021/01/18 02:42:51;;;;;;;10.95;2.88;;;2.50;99.90;;;;;;5015247;28;20080;-75
2021/01/18 02:45:21;;;;;;;10.32;1.90;;;2.50;99.90;;;;;;4998039;28;20384;-75
2021/01/18 02:47:48;;;;;;;13.43;3.22;;;2.50;99.90;;;;;;4998088;28;20022;-75
2021/01/18 02:50:14;;;;;;;7.72;2.33;;;2.60;99.90;;;;;;4998861;28;20077;-75
2021/01/18 02:52:42;;;;;;;9.55;1.55;;;2.50;99.90;;;;;;4997746;28;20045;-75
2021/01/18 02:55:08;;;;;;;10.88;1.58;;;2.50;99.90;;;;;;4997905;28;20022;-75
2021/01/18 02:57:38;;;;;;;8.20;1.73;;;2.50;99.90;;;;;;5015915;28;20022;-75
2021/01/18 03:00:07;;;;;;;6.68;2.20;;;2.50;99.90;;;;;;5015526;28;20072;-75
2021/01/18 03:02:49;;;;;;;12.27;1.55;;;2.50;99.90;;;;;;5016531;28;20053;-75
2021/01/18 03:05:38;;;;;;;11.85;1.90;;;2.50;99.90;;;;;;5015469;28;20469;-75
2021/01/18 03:08:22;;;;;;;12.73;1.75;;;2.50;99.90;;;;;;4997947;28;20026;-75
2021/01/18 03:11:02;;;;;;;16.77;2.53;;;2.60;99.90;;;;;;4997891;28;20018;-75
2021/01/18 03:13:46;;;;;;;10.57;1.15;;;2.60;99.90;;;;;;4999484;28;20121;-75
2021/01/18 03:16:36;;;;;;;20.05;2.33;;;2.70;99.90;;;;;;5001107;28;20440;-76
2021/01/18 03:19:04;;;;;;;4.10;0.98;;;2.70;99.90;;;;;;5000861;28;20025;-75
2021/01/18 03:21:30;;;;;;;14.57;2.42;;;2.80;99.90;;;;;;5018587;28;20033;-75
2021/01/18 03:23:56;;;;;;;10.35;1.83;;;2.80;99.90;;;;;;5001208;28;20025;-75
2021/01/18 03:26:25;;;;;;;14.32;1.85;;;2.80;99.90;;;;;;5018729;28;20027;-75
2021/01/18 03:28:52;;;;;;;8.38;1.80;;;2.70;99.90;;;;;;5018674;28;20037;-75
2021/01/18 03:31:18;;;;;;;11.35;1.30;;;2.80;99.90;;;;;;5001360;28;20037;-76
2021/01/18 03:33:43;;;;;;;12.40;1.33;;;2.80;99.90;;;;;;5018906;28;20026;-76
2021/01/18 03:36:09;;;;;;;7.82;1.60;;;2.80;99.90;;;;;;4991381;28;20034;-76
2021/01/18 03:38:35;;;;;;;11.65;1.75;;;2.80;99.90;;;;;;4998525;28;20042;-76
2021/01/18 03:41:02;;;;;;;20.00;2.15;;;2.80;99.90;;;;;;4981056;28;20469;-76
2021/01/18 03:43:27;;;;;;;7.30;1.17;;;2.80;99.90;;;;;;4980551;28;20037;-75
2021/01/18 03:48:21;;;;;;;8.68;1.50;;;2.80;99.90;;;;;;5056137;28;20045;-76
2021/01/18 03:50:49;;;;;;;13.60;2.28;;;2.80;99.90;;;;;;5056618;28;20020;-75
2021/01/18 03:53:15;;;;;;;10.48;1.70;;;2.80;99.90;;;;;;5058111;28;20020;-75
2021/01/18 03:55:41;;;;;;;13.60;1.52;;;2.90;99.90;;;;;;5057469;28;20104;-76
2021/01/18 03:58:07;;;;;;;11.20;1.27;;;2.90;99.90;;;;;;5057373;28;20037;-76
2021/01/18 04:00:34;;;;;;;10.07;1.70;;;2.90;99.90;;;;;;5056735;28;20024;-76
2021/01/18 04:03:00;;;;;;;10.65;1.85;;;3.00;99.90;;;;;;5057511;28;20029;-77
2021/01/18 04:05:27;;;;;;;16.83;2.67;;;3.10;99.90;;;;;;5056294;28;20108;-76
2021/01/18 04:07:53;;;;;;;7.00;1.15;;;3.10;99.90;;;;;;5057845;28;20017;-76
2021/01/18 04:10:24;;;;;;;12.85;1.95;;;3.10;99.90;;;;;;5055472;28;20488;-76
2021/01/18 04:12:50;;;;;;;12.80;1.90;;;3.10;99.90;;;;;;5016200;28;20026;-75
2021/01/18 04:15:18;;;;;;;18.85;2.28;;;3.10;99.90;;;;;;5015692;28;20026;-75
2021/01/18 04:17:46;;;;;;;18.15;3.03;;;3.10;99.90;;;;;;5017129;28;20469;-76
2021/01/18 04:20:13;;;;;;;7.72;2.05;;;3.10;99.90;;;;;;5016930;28;20018;-76
2021/01/18 04:22:56;;;;;;;16.73;1.58;;;3.10;99.90;;;;;;5017087;28;20022;-75
2021/01/18 04:25:25;;;;;;;9.82;1.52;;;3.20;99.90;;;;;;5040780;28;20100;-76
2021/01/18 04:27:55;;;;;;;11.70;2.22;;;3.20;99.90;;;;;;5056707;28;20023;-76
2021/01/18 04:30:25;;;;;;;18.42;2.03;;;3.20;99.90;;;;;;5056578;28;20449;-75
2021/01/18 04:32:59;;;;;;;16.63;1.83;;;3.30;99.90;;;;;;5056438;28;20422;-74
2021/01/18 04:35:26;;;;;;;13.35;1.77;;;3.20;99.90;;;;;;5056544;28;20025;-76
2021/01/18 04:37:53;;;;;;;12.40;1.85;;;3.20;99.90;;;;;;5056051;28;20017;-75
2021/01/18 04:40:21;;;;;;;11.93;1.80;;;3.10;99.90;;;;;;5056941;28;20486;-75
2021/01/18 04:42:47;;;;;;;13.52;1.55;;;3.10;99.90;;;;;;5056247;28;20031;-75
2021/01/18 04:45:16;;;;;;;16.55;2.47;;;3.10;99.90;;;;;;5055467;28;20057;-75
2021/01/18 04:47:45;;;;;;;16.48;2.15;;;3.10;99.90;;;;;;5055845;28;20380;-75
2021/01/18 04:50:22;;;;;;;13.88;2.80;;;3.10;99.90;;;;;;5054633;28;20029;-75
2021/01/18 04:52:54;;;;;;;15.48;2.08;;;3.20;99.90;;;;;;5054877;28;20025;-75
2021/01/18 04:55:30;;;;;;;21.15;3.40;;;3.20;99.90;;;;;;5055201;28;20079;-76
2021/01/18 04:58:16;;;;;;;13.15;1.85;;;3.20;99.90;;;;;;5055116;28;20021;-76
2021/01/18 05:00:43;;;;;;;16.70;3.28;;;3.20;99.90;;;;;;5054250;28;20025;-76
2021/01/18 05:03:11;;;;;;;19.65;2.45;;;3.20;99.90;;;;;;5052280;28;20025;-75
2021/01/18 05:06:06;;;;;;;11.40;2.33;;;3.10;99.90;;;;;;5041012;28;20386;-76
2021/01/18 05:08:43;;;;;;;16.58;2.58;;;3.10;99.90;;;;;;5056525;28;20077;-75
2021/01/18 05:11:14;;;;;;;15.02;3.33;;;3.20;99.90;;;;;;5046572;28;20136;-76
2021/01/18 05:13:40;;;;;;;8.70;2.92;;;3.20;99.90;;;;;;5048813;28;20022;-76
2021/01/18 05:16:07;;;;;;;20.08;2.45;;;3.20;99.90;;;;;;5036226;28;20112;-76
2021/01/18 05:18:34;;;;;;;9.90;2.13;;;3.10;99.90;;;;;;5040739;28;20025;-75
2021/01/18 05:21:05;;;;;;;10.95;2.13;;;3.20;99.90;;;;;;5055143;28;20029;-76
2021/01/18 05:23:31;;;;;;;13.57;2.22;;;3.10;99.90;;;;;;5053087;28;20071;-76
2021/01/18 05:26:27;;;;;;;18.30;2.65;;;3.10;99.90;;;;;;5034470;28;20025;-76
2021/01/18 05:28:56;;;;;;;8.90;2.40;;;3.20;99.90;;;;;;5034857;28;20044;-76
2021/01/18 05:31:27;;;;;;;11.85;2.08;;;3.40;99.90;;;;;;5035898;28;20030;-75
2021/01/18 05:33:57;;;;;;;14.40;2.75;;;3.20;99.90;;;;;;5035829;28;20030;-75
2021/01/18 05:36:38;;;;;;;12.90;2.55;;;3.20;99.90;;;;;;5033449;28;20025;-76
2021/01/18 05:39:29;;;;;;;17.75;3.05;;;3.20;99.90;;;;;;5015713;28;20041;-76
2021/01/18 05:41:55;;;;;;;12.88;1.55;;;3.20;99.90;;;;;;5016218;28;20026;-76
2021/01/18 05:44:30;;;;;;;12.68;2.53;;;3.20;99.90;;;;;;5015855;28;20461;-76
2021/01/18 05:47:02;;;;;;;17.35;2.83;;;3.20;99.90;;;;;;5014685;28;20098;-76
2021/01/18 05:49:39;;;;;;;20.92;2.17;;;3.30;99.90;;;;;;5015998;28;20049;-76
2021/01/18 05:52:21;;;;;;;12.38;2.78;;;3.30;99.90;;;;;;5050783;28;20032;-76
2021/01/18 05:54:47;;;;;;;11.25;2.08;;;3.30;99.90;;;;;;5055372;28;20029;-76
2021/01/18 05:57:15;;;;;;;12.88;2.92;;;3.40;99.90;;;;;;5055129;28;20029;-76
2021/01/18 05:59:41;;;;;;;15.25;2.35;;;3.40;99.90;;;;;;5055407;28;20027;-76
2021/01/18 06:02:09;;;;;;;17.27;2.92;;;3.50;99.90;;;;;;5055027;28;20024;-74
2021/01/18 06:04:35;;;;;;;10.50;2.80;;;3.50;99.90;;;;;;5055589;28;20021;-76
2021/01/18 06:07:03;;;;;;;20.38;3.38;;;3.60;99.90;;;;;;5054726;28;20024;-76
2021/01/18 06:09:49;;;;;;;15.10;2.47;;;3.60;99.90;;;;;;5055574;28;20024;-75
2021/01/18 06:12:26;;;;;;;15.20;3.13;;;3.70;99.90;;;;;;5054020;28;20104;-75
2021/01/18 06:15:12;;;;;;;8.93;2.38;;;3.70;99.90;;;;;;5055404;28;20025;-75
2021/01/18 06:17:49;;;;;;;21.83;3.55;;;3.80;99.90;;;;;;5055660;28;20120;-76
2021/01/18 06:20:21;;;;;;;17.25;2.92;;;3.80;99.90;;;;;;5054014;28;20025;-75
2021/01/18 06:22:51;;;;;;;16.17;2.22;;;3.70;99.90;;;;;;5054038;28;20033;-75
2021/01/18 06:25:16;;;;;;;16.42;2.05;;;3.80;99.90;;;;;;5047612;28;20403;-76
2021/01/18 06:27:42;;;;;;;15.15;2.50;;;3.80;99.90;;;;;;5054743;28;20029;-75
2021/01/18 06:30:31;;;;;;;21.40;3.55;;;3.80;99.90;;;;;;5055223;28;20075;-73
2021/01/18 06:32:59;;;;;;;10.73;2.40;;;3.80;99.90;;;;;;5044455;28;20494;-72
2021/01/18 06:35:31;;;;;;;14.45;3.70;;;3.80;99.90;;;;;;5053717;28;20028;-72
2021/01/18 06:38:20;;;;;;;17.13;2.83;;;3.80;99.90;;;;;;5054918;28;20395;-75
2021/01/18 06:40:55;;;;;;;;;;;3.80;99.90;;;;;;5049150;28;20053;-74
2021/01/18 06:43:22;;;;;;;22.40;4.13;;;3.80;99.90;;;;;;5053896;28;19999;-74
2021/01/18 06:45:48;;;;;;;15.80;2.15;;;3.80;99.90;;;;;;5053658;28;20025;-73
2021/01/18 06:48:14;;;;;;;16.90;2.70;;;3.80;99.90;;;;;;5056496;28;20037;-73
2021/01/18 06:50:40;;;;;;;24.85;3.85;;;3.80;99.90;;;;;;5057939;28;20063;-73
2021/01/18 06:53:24;;;;;;;21.05;3.50;;;3.80;99.90;;;;;;5058391;28;20075;-73
2021/01/18 06:56:11;;;;;;;20.88;3.55;;;3.70;99.90;;;;;;5051180;28;20029;-73
2021/01/18 06:58:46;;;;;;;15.52;3.53;;;3.70;99.90;;;;;;5038869;28;20471;-73
2021/01/18 07:01:20;;;;;;;18.50;2.53;;;3.70;99.90;;;;;;5037810;28;20021;-73
2021/01/18 07:03:54;;;;;;;14.32;2.70;;;3.80;99.90;;;;;;5038907;28;20037;-73
2021/01/18 07:06:31;;;;;;;15.43;2.45;;;3.90;99.90;;;;;;5044917;28;20017;-73
2021/01/18 07:08:58;;;;;;;18.40;3.33;;;3.80;99.90;;;;;;5057698;28;20036;-73
2021/01/18 07:11:24;;;;;;;21.08;2.75;;;3.80;99.90;;;;;;5057241;28;20052;-73
2021/01/18 07:13:50;;;;;;;12.38;2.20;;;3.80;99.90;;;;;;5058414;28;20040;-73
2021/01/18 07:16:21;;;;;;;23.08;3.53;;;3.80;99.90;;;;;;5057387;28;20033;-73
2021/01/18 07:18:59;;;;;;;25.75;2.40;;;3.80;99.90;;;;;;5058759;28;20028;-73
2021/01/18 07:21:37;;;;;;;14.05;2.47;;;3.90;99.90;;;;;;5059060;28;20075;-73
2021/01/18 07:24:08;;;;;;;12.45;2.25;;;3.90;99.90;;;;;;5056976;28;20159;-73
2021/01/18 07:26:55;;;;;;;14.13;2.55;;;3.90;99.90;;;;;;5057993;28;20017;-73
2021/01/18 07:29:23;;;;;;;13.85;2.15;;;4.00;99.90;;;;;;5055968;28;20021;-73
2021/01/18 07:31:52;;;;;;;15.07;3.43;;;4.10;99.90;;;;;;5058042;28;20060;-73
2021/01/18 07:34:21;;;;;;;12.98;2.92;;;4.10;99.90;;;;;;5057264;28;20058;-73
2021/01/18 07:36:47;;;;;;;;;;;4.10;99.90;;;;;;5056663;28;20021;-73
2021/01/18 07:39:25;;;;;;;16.25;3.25;;;4.10;99.90;;;;;;5072603;22;19970;-73
2021/01/18 07:41:51;;;;;;;18.58;2.60;;;4.10;99.90;;;;;;5072384;28;20021;-73
2021/01/18 07:44:37;;;;;;;21.42;2.67;;;4.00;99.90;;;;;;5057376;28;20029;-76
2021/01/18 07:47:21;;;;;;;19.20;2.40;;;4.10;99.90;;;;;;5055703;28;20032;-73
2021/01/18 07:49:47;;;;;;;16.27;2.42;;;4.20;99.90;;;;;;5057224;28;20029;-73
2021/01/18 07:52:19;;;;;;;17.10;1.88;;;4.20;99.90;;;;;;5057153;28;20047;-73
2021/01/18 07:54:49;;;;;;;12.82;2.10;;;4.10;99.90;;;;;;5057078;28;20067;-73
2021/01/18 07:57:26;;;;;;;18.83;2.65;;;4.10;99.90;;;;;;5056815;28;20028;-73
2021/01/18 08:00:23;;;;;;;20.02;3.00;;;4.10;99.90;;;;;;5054774;28;20028;-73
2021/01/18 08:02:54;;;;;;;15.40;1.75;;;4.20;99.90;;;;;;5055153;28;20040;-73
2021/01/18 08:05:25;;;;;;;13.95;1.98;;;4.20;99.90;;;;;;5055982;28;20029;-71
2021/01/18 08:08:17;;;;;;;12.77;1.77;;;4.20;99.90;;;;;;5057790;28;20025;-71
2021/01/18 08:10:55;;;;;;;16.35;2.40;;;4.20;99.90;;;;;;5057289;28;20029;-71
2021/01/18 08:13:43;;;;;;;10.18;1.88;;;4.20;99.90;;;;;;5057885;28;20071;-71
2021/01/18 08:16:18;;;;;;;23.23;3.08;;;4.20;99.90;;;;;;5057776;28;20400;-71
2021/01/18 08:18:56;;;;;;;12.63;2.95;;;4.30;99.90;;;;;;5057389;28;20041;-71
2021/01/18 08:21:42;;;;;;;21.52;2.35;;;4.30;99.90;;;;;;5055877;28;20471;-71
2021/01/18 08:24:13;;;;;;;14.68;2.35;;;4.40;99.90;;;;;;5057376;28;20017;-73
2021/01/18 08:27:05;;;;;;;17.23;2.42;;;4.30;99.90;;;;;;5056649;28;20021;-73
2021/01/18 08:29:38;;;;;;;14.25;1.67;;;4.40;99.90;;;;;;5056593;28;20074;-73
2021/01/18 08:32:34;;;;;;;13.90;2.30;;;4.40;99.90;;;;;;5056780;28;20021;-74
2021/01/18 08:35:01;;;;;;;12.10;2.50;;;4.40;99.90;;;;;;5057135;28;20104;-71
2021/01/18 08:37:29;;;;;;;29.63;3.53;;;4.40;99.90;;;;;;5056539;28;20055;-73
2021/01/18 08:40:01;;;;;;;22.15;3.47;;;4.40;99.90;;;;;;5054579;28;20029;-73
2021/01/18 08:42:28;;;;;;;18.73;2.75;;;4.40;99.90;;;;;;5055756;28;20074;-71
2021/01/18 08:45:01;;;;;;;12.63;2.33;;;4.40;99.90;;;;;;5056355;28;20017;-71
2021/01/18 08:47:45;;;;;;;12.77;2.80;;;4.40;99.90;;;;;;5056780;28;20132;-71
2021/01/18 08:50:30;;;;;;;17.42;2.50;;;4.40;99.90;;;;;;5057586;28;20077;-71
2021/01/18 08:52:59;;;;;;;24.02;3.05;;;4.40;99.90;;;;;;5056082;28;20061;-71
2021/01/18 08:55:28;;;;;;;16.88;2.70;;;4.40;99.90;;;;;;5056582;28;20020;-71
2021/01/18 08:58:04;;;;;;;19.48;2.33;;;4.40;99.90;;;;;;5054688;28;20498;-71
2021/01/18 09:00:42;;;;;;;13.05;2.33;;;4.50;99.90;;;;;;5054075;28;20074;-71
2021/01/18 09:03:09;;;;;;;15.93;2.15;;;4.50;99.90;;;;;;5055922;28;20108;-71
2021/01/18 09:05:35;;;;;;;14.57;2.30;;;4.60;99.90;;;;;;5055019;28;20013;-71
2021/01/18 09:08:03;;;;;;;17.90;1.75;;;4.60;99.90;;;;;;5054796;28;20071;-71
2021/01/18 09:10:29;;;;;;;15.60;2.63;;;4.60;99.90;;;;;;5055252;28;20029;-71
2021/01/18 09:13:04;;;;;;;12.93;3.15;;;4.70;99.90;;;;;;5056284;28;20027;-71
2021/01/18 09:15:30;;;;;;;18.33;2.50;;;4.70;99.90;;;;;;5055537;28;20554;-71
2021/01/18 09:17:56;;;;;;;7.70;2.13;;;4.80;99.90;;;;;;5056380;28;20025;-71
2021/01/18 09:20:21;;;;;;;7.10;1.45;;;4.80;99.90;;;;;;5054745;28;20033;-71
2021/01/18 09:22:47;;;;;;;12.52;2.10;;;4.90;99.90;;;;;;5055949;28;20021;-71
2021/01/18 09:25:15;;;;;;;14.48;2.45;;;4.80;99.90;;;;;;5055182;28;20099;-71
2021/01/18 09:27:41;;;;;;;16.45;1.83;;;4.80;99.90;;;;;;5054085;28;20028;-71
2021/01/18 09:30:15;;;;;;;10.32;2.20;;;4.90;99.90;;;;;;5055416;28;20025;-71
2021/01/18 09:32:56;;;;;;;11.38;1.80;;;4.90;99.90;;;;;;5054348;28;20021;-71
2021/01/18 09:37:50;;;;;;;20.73;3.53;;;5.10;99.90;;;;;;5051901;28;20045;-71
2021/01/18 09:40:17;;;;;;;19.77;1.75;;;5.20;99.90;;;;;;5060340;28;20029;-72
2021/01/18 09:42:46;;;;;;;11.80;1.23;;;5.20;99.90;;;;;;5056177;28;20104;-73
2021/01/18 09:45:13;;;;;;;15.77;2.58;;;5.30;99.90;;;;;;5055317;28;20021;-72
2021/01/18 09:47:39;;;;;;;12.88;2.03;;;5.20;99.90;;;;;;5054671;28;20108;-74
2021/01/18 09:50:13;;;;;;;14.45;2.38;;;5.30;99.90;;;;;;5054581;28;20052;-73
2021/01/18 09:52:49;;;;;;;17.33;3.63;;;5.30;99.90;;;;;;5053193;28;20021;-74
2021/01/18 09:55:30;;;;;;;16.95;2.67;;;5.30;99.90;;;;;;5035064;28;20391;-74
2021/01/18 09:58:15;;;;;;;14.35;2.35;;;5.40;99.90;;;;;;5034833;28;20108;-73
2021/01/18 10:00:48;;;;;;;15.13;2.38;;;5.40;99.90;;;;;;5033258;28;20107;-73
2021/01/18 10:03:32;;;;;;;14.55;1.50;;;5.40;99.90;;;;;;5033513;28;20017;-74
2021/01/18 10:06:04;;;;;;;13.80;1.88;;;5.40;99.90;;;;;;5034049;28;20022;-73
2021/01/18 10:08:32;;;;;;;15.15;2.20;;;5.40;99.90;;;;;;5035219;28;20022;-71
2021/01/18 10:10:59;;;;;;;15.38;1.95;;;5.40;99.90;;;;;;5034387;28;20075;-72
2021/01/18 10:13:25;;;;;;;16.95;1.77;;;5.50;99.90;;;;;;5033521;28;20032;-71
2021/01/18 10:15:52;;;;;;;12.27;1.25;;;5.60;99.90;;;;;;5033608;28;20037;-72
2021/01/18 10:18:38;;;;;;;24.48;2.33;;;5.60;99.90;;;;;;5034922;28;20068;-71
2021/01/18 10:21:05;;;;;;;17.25;1.95;;;5.70;99.90;;;;;;5034535;28;20024;-71
2021/01/18 10:23:33;;;;;;;13.73;1.85;;;5.70;99.90;;;;;;5037125;28;20122;-72
2021/01/18 10:26:17;;;;;;;17.55;2.28;;;5.70;99.90;;;;;;5038562;28;20017;-72
2021/01/18 10:29:22;;;;;;;9.98;1.50;;;5.70;99.90;;;;;;5038760;28;20025;-72
2021/01/18 10:31:51;;;;;;;15.18;2.28;;;5.80;99.90;;;;;;5026705;28;20037;-72
2021/01/18 10:34:23;;;;;;;8.98;1.70;;;5.80;99.90;;;;;;5038517;28;20025;-71
2021/01/18 10:36:51;;;;;;;11.35;1.02;;;5.80;99.90;;;;;;5039079;28;20511;-71
2021/01/18 10:39:28;;;;;;;11.55;1.25;;;5.80;99.90;;;;;;5037845;28;20018;-71
2021/01/18 10:42:07;;;;;;;18.58;1.27;;;5.80;99.90;;;;;;5037375;28;20025;-71
2021/01/18 10:44:34;;;;;;;6.35;1.05;;;5.80;99.90;;;;;;5038717;28;20025;-71
2021/01/18 10:47:00;;;;;;;8.27;1.55;;;5.90;99.90;;;;;;5038582;28;20395;-71
2021/01/18 10:49:28;;;;;;;7.07;1.25;;;5.90;99.90;;;;;;5041407;28;20388;-71
2021/01/18 10:52:09;;;;;;;12.27;1.10;;;5.80;99.90;;;;;;5043274;28;20109;-71
2021/01/18 10:54:35;;;;;;;5.22;0.77;;;5.80;99.90;;;;;;5043810;28;20026;-71
2021/01/18 10:57:01;;;;;;;12.95;2.05;;;5.80;99.90;;;;;;5043257;28;20388;-71
2021/01/18 10:59:28;;;;;;;12.35;1.98;;;5.90;99.90;;;;;;5043154;28;20013;-71
2021/01/18 11:02:11;;;;;;;11.15;1.55;;;5.90;99.90;;;;;;5043529;28;20018;-71
2021/01/18 11:04:44;;;;;;;9.05;1.67;;;5.80;99.90;;;;;;5042314;28;20490;-71
2021/01/18 11:07:12;;;;;;;6.97;1.30;;;5.80;99.90;;;;;;5043722;28;20021;-71
2021/01/18 11:09:38;;;;;;;12.02;2.33;;;5.80;99.90;;;;;;5044372;28;20028;-71
2021/01/18 11:12:05;;;;;;;10.45;1.73;;;5.80;99.90;;;;;;5043690;28;20052;-71
2021/01/18 11:14:31;;;;;;;12.32;1.40;;;5.80;99.90;;;;;;5043324;28;20049;-71
2021/01/18 11:17:04;;;;;;;13.38;1.77;;;5.80;99.90;;;;;;5041386;28;20056;-72
2021/01/18 11:19:34;;;;;;;8.45;2.03;;;5.80;99.90;;;;;;5042276;28;20029;-71
2021/01/18 11:21:59;;;;;;;8.32;2.35;;;5.80;99.90;;;;;;5043514;28;20028;-71
2021/01/18 11:24:25;;;;;;;13.77;2.95;;;5.90;99.90;;;;;;5043464;28;20108;-71
2021/01/18 11:26:52;;;;;;;14.23;1.77;;;5.90;99.90;;;;;;5042959;28;20029;-71
2021/01/18 11:29:19;;;;;;;16.45;1.67;;;5.90;99.90;;;;;;5042472;28;20387;-71
2021/01/18 11:31:45;;;;;;;13.55;1.95;;;5.90;99.90;;;;;;5041752;28;20026;-72
2021/01/18 11:34:12;;;;;;;12.43;1.75;;;6.00;99.90;;;;;;5040400;28;20041;-72
2021/01/18 11:36:39;;;;;;;12.13;1.48;;;6.00;99.90;;;;;;5040226;28;20041;-73
2021/01/18 11:39:06;;;;;;;14.00;1.92;;;6.10;99.90;;;;;;5039658;28;20172;-75
2021/01/18 11:41:33;;;;;;;11.18;2.25;;;6.00;99.90;;;;;;5037101;28;20025;-75
2021/01/18 11:44:00;;;;;;;17.60;1.95;;;6.00;99.90;;;;;;5037539;28;20017;-75
2021/01/18 11:46:25;;;;;;;12.40;1.98;;;6.00;99.90;;;;;;5034916;28;20095;-75
2021/01/18 11:48:51;;;;;;;12.20;1.45;;;6.00;99.90;;;;;;5037081;28;20072;-74
2021/01/18 11:51:17;;;;;;;18.13;2.65;;;6.00;99.90;;;;;;5035160;28;20115;-74
2021/01/18 11:53:42;;;;;;;11.60;0.98;;;6.00;99.90;;;;;;5035055;28;20387;-74
2021/01/18 11:56:08;;;;;;;8.65;1.60;;;6.00;99.90;;;;;;5036679;28;20022;-74
2021/01/18 11:58:33;;;;;;;13.43;1.55;;;6.00;99.90;;;;;;5036332;28;20551;-74
2021/01/18 12:00:59;;;;;;;10.70;1.20;;;6.00;99.90;;;;;;5036703;28;20033;-74
2021/01/18 12:03:25;;;;;;;6.68;0.80;;;6.00;99.90;;;;;;5036590;28;20104;-74
2021/01/18 12:05:51;;;;;;;12.40;2.35;;;5.90;99.90;;;;;;5036336;28;20483;-74
2021/01/18 12:08:17;;;;;;;16.65;2.10;;;6.10;99.90;;;;;;5036063;28;20028;-74
2021/01/18 12:10:43;;;;;;;10.38;1.00;;;6.10;99.90;;;;;;5036344;28;20419;-74
2021/01/18 12:13:09;;;;;;;12.70;1.55;;;6.20;99.90;;;;;;5035839;28;20030;-74
2021/01/18 12:15:35;;;;;;;12.13;2.25;;;6.30;99.90;;;;;;5036144;28;20371;-74
2021/01/18 12:18:01;;;;;;;8.55;0.80;;;6.40;99.90;;;;;;5035570;28;20030;-74
2021/01/18 12:20:27;;;;;;;10.57;0.68;;;6.40;99.90;;;;;;5035564;28;20033;-78
2021/01/18 12:22:54;;;;;;;10.77;1.05;;;6.40;99.90;;;;;;5035052;28;20056;-77
2021/01/18 12:25:21;;;;;;;10.52;1.88;;;6.50;99.90;;;;;;5036328;28;20028;-77
2021/01/18 12:27:51;;;;;;;12.23;0.60;;;6.60;99.90;;;;;;5035340;28;20029;-77
2021/01/18 12:30:17;;;;;;;9.75;1.13;;;6.60;99.90;;;;;;5036361;28;20021;-78
2021/01/18 12:32:42;;;;;;;8.98;0.90;;;6.60;99.90;;;;;;5039363;28;20143;-78
2021/01/18 12:35:09;;;;;;;7.22;0.55;;;6.60;99.90;;;;;;5037771;28;20518;-78
2021/01/18 12:37:34;;;;;;;10.13;1.48;;;6.50;99.90;;;;;;5036802;28;20075;-77
2021/01/18 12:40:07;;;;;;;10.18;1.45;;;6.60;99.90;;;;;;5036806;28;20026;-78
2021/01/18 12:42:34;;;;;;;21.35;3.13;;;6.50;99.90;;;;;;5037233;28;20416;-78
2021/01/18 12:44:59;;;;;;;12.70;0.82;;;6.50;99.90;;;;;;5036166;28;20017;-75
2021/01/18 12:47:25;;;;;;;13.32;1.13;;;6.40;99.90;;;;;;5035581;28;20044;-74
2021/01/18 12:49:51;;;;;;;6.32;0.90;;;6.40;99.90;;;;;;5035173;28;20036;-75
2021/01/18 12:52:16;;;;;;;9.48;0.50;;;6.30;99.90;;;;;;5035565;28;20057;-75
2021/01/18 12:54:45;;;;;;;7.57;0.93;;;6.30;99.90;;;;;;5035198;28;20025;-75
2021/01/18 12:57:11;;;;;;;14.25;1.27;;;6.30;99.90;;;;;;5034976;28;20113;-75
2021/01/18 12:59:36;;;;;;;12.20;1.50;;;6.40;99.90;;;;;;5035116;28;20493;-76
2021/01/18 13:02:09;;;;;;;11.25;1.60;;;6.40;99.90;;;;;;5033396;28;20491;-76
2021/01/18 13:04:34;;;;;;;13.38;1.27;;;6.50;99.90;;;;;;5034326;28;20483;-76
2021/01/18 13:07:00;;;;;;;16.27;0.75;;;6.60;99.90;;;;;;5032841;28;20113;-76
2021/01/18 13:09:25;;;;;;;5.50;0.43;;;6.60;99.90;;;;;;5034503;28;20113;-75
2021/01/18 13:11:53;;;;;;;7.38;0.55;;;6.70;99.90;;;;;;5036113;28;20029;-79
2021/01/18 13:14:21;;;;;;;8.38;0.32;;;6.70;99.90;;;;;;5040801;28;20025;-78